Time;durP1;ratioP1;P1;durP2;ratioP2;P2;SDS_P1;SDS_P2;PMS_P1;PMS_P2;Temp;Humidity;BMP_temperature;BMP_pressure;BME280_temperature;BME280_humidity;BME280_pressure;Samples;Min_cycle;Max_cycle;Signal;HPM_P1;HPM_P2
2021/05/02 00:01:06;;;;;;;6.07;4.18;;;;;;;5.82;52.55;101252.78;5015281;28;20053;-69
2021/05/02 00:03:33;;;;;;;7.20;3.50;;;;;;;6.17;52.53;101258.34;5014696;28;20021;-69
2021/05/02 00:05:59;;;;;;;8.52;4.90;;;;;;;6.11;52.36;101259.31;5016323;28;20033;-69
2021/05/02 00:08:27;;;;;;;5.75;3.67;;;;;;;4.96;54.66;101255.56;5019016;28;20056;-69
2021/05/02 00:10:53;;;;;;;6.22;4.35;;;;;;;5.79;53.35;101260.63;5007414;28;20037;-69
2021/05/02 00:13:19;;;;;;;5.93;3.67;;;;;;;5.82;53.08;101258.00;5015824;28;20037;-69
2021/05/02 00:15:45;;;;;;;6.38;4.15;;;;;;;6.16;52.08;101254.03;5013266;28;20038;-69
2021/05/02 00:18:11;;;;;;;6.53;3.97;;;;;;;6.14;51.92;101254.06;5017048;28;20095;-69
2021/05/02 00:20:37;;;;;;;5.85;3.42;;;;;;;6.00;52.04;101251.66;5001769;28;20032;-69
2021/05/02 00:23:04;;;;;;;6.07;3.53;;;;;;;6.04;51.92;101244.72;4998098;28;20033;-69
2021/05/02 00:25:31;;;;;;;9.18;3.45;;;;;;;5.51;52.96;101247.16;4999894;28;20124;-69
2021/05/02 00:27:58;;;;;;;5.97;3.22;;;;;;;5.35;53.80;101251.69;5017172;28;20036;-69
2021/05/02 00:30:26;;;;;;;7.85;4.03;;;;;;;5.74;52.32;101248.59;5030324;28;20057;-69
2021/05/02 00:32:55;;;;;;;4.75;3.10;;;;;;;5.63;52.53;101256.50;5004817;28;20034;-69
2021/05/02 00:35:22;;;;;;;6.05;3.20;;;;;;;5.60;52.69;101256.56;5003310;28;20041;-69
2021/05/02 00:37:49;;;;;;;5.90;3.92;;;;;;;5.59;52.65;101255.72;5016482;28;20065;-69
2021/05/02 00:40:18;;;;;;;5.30;3.10;;;;;;;5.60;52.45;101252.22;5017809;28;20073;-69
2021/05/02 00:42:49;;;;;;;6.13;2.92;;;;;;;5.64;52.34;101238.34;5014319;28;20064;-69
2021/05/02 00:45:20;;;;;;;4.13;2.78;;;;;;;5.42;53.04;101247.28;5015348;28;20054;-70
2021/05/02 00:47:48;;;;;;;5.65;3.05;;;;;;;5.54;52.51;101247.13;4998072;28;20078;-69
2021/05/02 00:50:17;;;;;;;5.85;3.40;;;;;;;5.60;52.68;101247.03;5014799;28;20168;-69
2021/05/02 00:52:46;;;;;;;9.35;3.65;;;;;;;5.19;53.25;101243.25;5014642;28;20026;-70
2021/05/02 00:55:15;;;;;;;6.22;3.58;;;;;;;5.53;52.83;101245.41;4997433;28;20173;-71
2021/05/02 00:57:53;;;;;;;4.00;2.42;;;;;;;5.53;53.28;101245.41;5013845;28;20038;-69
2021/05/02 01:00:20;;;;;;;3.83;2.28;;;;;;;5.41;53.65;101242.97;4989676;28;20041;-71
2021/05/02 01:02:49;;;;;;;5.63;3.28;;;;;;;5.88;52.50;101236.28;5015075;28;20040;-69
2021/05/02 01:05:15;;;;;;;6.28;3.15;;;;;;;5.36;53.26;101248.22;5011721;28;20073;-69
2021/05/02 01:07:42;;;;;;;7.32;2.97;;;;;;;5.64;52.80;101237.50;5011301;28;20029;-69
2021/05/02 01:10:16;;;;;;;5.72;3.38;;;;;;;5.68;52.61;101236.56;5003495;28;20029;-68
2021/05/02 01:12:52;;;;;;;6.95;2.88;;;;;;;5.12;53.38;101231.22;4992572;28;20056;-70
2021/05/02 01:15:24;;;;;;;6.10;3.17;;;;;;;5.52;53.01;101238.50;5000378;28;20056;-68
2021/05/02 01:17:54;;;;;;;6.35;3.25;;;;;;;5.66;52.65;101241.78;5013123;28;20038;-69
2021/05/02 01:20:20;;;;;;;4.63;3.35;;;;;;;5.36;52.97;101248.22;5012853;28;20033;-69
2021/05/02 01:22:45;;;;;;;4.60;3.10;;;;;;;5.17;53.66;101238.97;4997847;28;20124;-69
2021/05/02 01:25:12;;;;;;;6.30;2.83;;;;;;;5.63;52.53;101236.63;5015848;28;20045;-69
2021/05/02 01:27:38;;;;;;;6.82;3.03;;;;;;;5.33;53.49;101237.03;5008651;28;20030;-68
2021/05/02 01:30:08;;;;;;;5.28;3.28;;;;;;;5.56;52.78;101240.19;5015534;28;20046;-68
2021/05/02 01:32:34;;;;;;;4.70;2.80;;;;;;;5.16;53.62;101230.28;4982368;28;20029;-68
2021/05/02 01:35:03;;;;;;;9.30;3.20;;;;;;;5.19;53.33;101230.28;4998865;28;20065;-69
2021/05/02 01:37:28;;;;;;;3.95;2.63;;;;;;;5.43;52.68;101238.63;5012922;28;20029;-69
2021/05/02 01:39:54;;;;;;;7.20;3.58;;;;;;;5.37;52.70;101230.91;5016623;28;20440;-69
2021/05/02 01:42:20;;;;;;;9.27;3.80;;;;;;;5.33;52.77;101227.50;5015389;28;20045;-71
2021/05/02 01:44:45;;;;;;;5.25;3.15;;;;;;;4.63;54.92;101223.91;5001684;28;20072;-69
2021/05/02 01:47:17;;;;;;;6.80;3.42;;;;;;;5.01;53.97;101226.16;5013401;28;20693;-69
2021/05/02 01:49:50;;;;;;;5.03;3.70;;;;;;;5.02;54.02;101232.19;5004900;28;20589;-69
2021/05/02 01:52:17;;;;;;;4.05;3.13;;;;;;;5.37;53.51;101218.84;5013775;28;20034;-69
2021/05/02 01:54:44;;;;;;;6.35;3.60;;;;;;;5.58;52.73;101217.69;5012795;28;20357;-69
2021/05/02 01:57:16;;;;;;;6.47;3.63;;;;;;;5.63;52.88;101221.06;4995856;28;20045;-69
2021/05/02 01:59:43;;;;;;;6.25;3.70;;;;;;;5.50;52.73;101219.50;5013783;28;20029;-69
2021/05/02 02:02:09;;;;;;;4.03;2.40;;;;;;;5.48;53.26;101225.59;5011508;28;20403;-70
2021/05/02 02:04:38;;;;;;;6.47;3.72;;;;;;;5.32;53.37;101222.34;4993091;28;20033;-69
2021/05/02 02:07:05;;;;;;;6.55;3.67;;;;;;;5.35;53.06;101225.75;5004177;28;20026;-69
2021/05/02 02:09:31;;;;;;;5.05;3.33;;;;;;;5.46;53.29;101223.88;5011008;28;20034;-69
2021/05/02 02:11:57;;;;;;;10.88;3.47;;;;;;;5.55;52.86;101222.06;5014227;28;20068;-69
2021/05/02 02:14:23;;;;;;;7.03;4.25;;;;;;;5.63;53.26;101215.03;5013281;28;20036;-69
2021/05/02 02:16:50;;;;;;;7.85;3.85;;;;;;;5.67;53.05;101219.28;5015412;28;20030;-70
2021/05/02 02:19:15;;;;;;;6.97;3.75;;;;;;;5.55;53.35;101215.13;4998077;28;20380;-69
2021/05/02 02:21:43;;;;;;;5.28;3.00;;;;;;;5.72;52.90;101216.63;5014568;28;20048;-70
2021/05/02 02:24:12;;;;;;;7.95;3.75;;;;;;;5.52;53.09;101209.97;5001775;28;20078;-69
2021/05/02 02:26:55;;;;;;;6.30;3.30;;;;;;;5.65;53.17;101216.72;4996229;28;20053;-69
2021/05/02 02:29:23;;;;;;;10.75;3.90;;;;;;;5.68;52.66;101208.03;5012644;28;20064;-71
2021/05/02 02:31:50;;;;;;;6.45;3.50;;;;;;;5.81;52.83;101213.91;5003549;28;20033;-69
2021/05/02 02:34:18;;;;;;;5.55;3.45;;;;;;;5.77;52.60;101218.28;5013051;28;20044;-68
2021/05/02 02:36:43;;;;;;;6.35;5.40;;;;;;;5.91;52.73;101218.09;5004376;28;20079;-68
2021/05/02 02:39:10;;;;;;;10.00;4.00;;;;;;;5.95;52.59;101204.19;5005225;28;20029;-70
2021/05/02 02:41:38;;;;;;;7.20;4.43;;;;;;;6.00;52.27;101214.50;5014422;28;20064;-69
2021/05/02 02:44:07;;;;;;;7.05;4.28;;;;;;;5.91;52.77;101210.31;5012961;28;20037;-69
2021/05/02 02:46:33;;;;;;;8.13;4.07;;;;;;;5.84;52.77;101213.88;5014433;28;20044;-69
2021/05/02 02:49:00;;;;;;;12.60;4.90;;;;;;;5.70;53.14;101210.59;4997951;28;20037;-69
2021/05/02 02:51:27;;;;;;;7.30;4.28;;;;;;;5.72;53.25;101217.47;5013671;28;20610;-70
2021/05/02 02:53:56;;;;;;;7.70;3.70;;;;;;;5.72;53.05;101214.88;5003120;28;20113;-69
2021/05/02 02:56:23;;;;;;;8.77;4.57;;;;;;;5.75;52.86;101213.97;5013648;28;20410;-68
2021/05/02 02:59:01;;;;;;;10.38;4.93;;;;;;;5.66;53.32;101225.38;5014081;28;20034;-70
2021/05/02 03:01:27;;;;;;;6.57;4.88;;;;;;;5.64;53.75;101212.41;5012483;28;20084;-69
2021/05/02 03:04:06;;;;;;;9.32;5.50;;;;;;;5.81;53.19;101213.91;5012821;28;20188;-70
2021/05/02 03:06:34;;;;;;;9.10;4.97;;;;;;;5.82;53.26;101215.63;5000535;28;20049;-70
2021/05/02 03:09:00;;;;;;;8.48;4.60;;;;;;;5.69;53.44;101214.09;5013402;28;20052;-69
2021/05/02 03:11:26;;;;;;;8.95;5.35;;;;;;;5.31;54.47;101220.66;5014591;28;20037;-70
2021/05/02 03:13:55;;;;;;;6.93;4.50;;;;;;;5.52;54.28;101216.91;5012857;28;20034;-69
2021/05/02 03:16:27;;;;;;;12.90;6.28;;;;;;;5.50;54.13;101216.91;5002404;28;20041;-70
2021/05/02 03:19:00;;;;;;;;;;;;;;;5.66;53.79;101220.19;5000311;28;20030;-70
2021/05/02 03:21:37;;;;;;;6.78;4.25;;;;;;;5.54;53.87;101217.75;5023323;28;19913;-70
2021/05/02 03:24:06;;;;;;;7.93;5.80;;;;;;;5.51;53.79;101222.97;5019959;28;20034;-69
2021/05/02 03:26:33;;;;;;;12.48;6.93;;;;;;;5.59;53.70;101219.41;5006502;28;20060;-70
2021/05/02 03:29:03;;;;;;;10.13;5.75;;;;;;;5.11;54.43;101221.72;5014910;28;20030;-69
2021/05/02 03:31:35;;;;;;;11.23;6.78;;;;;;;5.55;53.74;101222.91;5003479;28;20028;-70
2021/05/02 03:34:04;;;;;;;;;;;;;;;5.65;53.30;101229.66;5002593;28;20072;-69
2021/05/02 03:36:46;;;;;;;12.82;5.45;;;;;;;5.49;53.29;101232.50;5005393;28;19940;-70
2021/05/02 03:39:12;;;;;;;7.15;4.20;;;;;;;5.58;53.06;101242.75;5000758;28;20095;-70
2021/05/02 03:41:38;;;;;;;9.98;5.88;;;;;;;5.41;53.52;101232.59;5000774;28;20061;-70
2021/05/02 03:44:04;;;;;;;16.38;5.75;;;;;;;5.55;53.38;101241.06;5002845;28;20053;-69
2021/05/02 03:46:30;;;;;;;21.27;6.35;;;;;;;5.58;53.44;101233.25;5017397;28;20030;-69
2021/05/02 03:49:00;;;;;;;9.63;5.07;;;;;;;5.40;53.31;101238.66;5002887;28;20040;-70
2021/05/02 03:51:28;;;;;;;9.15;6.43;;;;;;;5.54;53.14;101236.75;5014767;28;20062;-70
2021/05/02 03:53:54;;;;;;;10.50;6.93;;;;;;;5.58;53.42;101228.06;4997707;28;20041;-70
2021/05/02 03:56:41;;;;;;;12.32;6.82;;;;;;;5.57;52.74;101233.25;5016971;28;20536;-70
2021/05/02 03:59:08;;;;;;;12.88;6.07;;;;;;;5.63;52.87;101235.75;5006469;28;20029;-70
2021/05/02 04:01:34;;;;;;;7.97;5.75;;;;;;;5.60;52.75;101236.66;5002459;28;20038;-70
2021/05/02 04:04:00;;;;;;;13.05;5.95;;;;;;;5.52;52.75;101242.84;5016487;28;20191;-70
2021/05/02 04:06:27;;;;;;;12.95;6.30;;;;;;;5.51;53.07;101244.56;5018764;28;20693;-70
2021/05/02 04:08:52;;;;;;;14.65;6.60;;;;;;;5.51;53.22;101248.91;5001616;28;20033;-70
2021/05/02 04:11:18;;;;;;;10.50;6.85;;;;;;;4.99;54.08;101242.59;5016645;28;20034;-70
2021/05/02 04:13:44;;;;;;;18.95;6.97;;;;;;;5.48;53.42;101252.41;5007184;28;20103;-70
2021/05/02 04:16:13;;;;;;;12.95;7.32;;;;;;;5.44;53.21;101258.50;5000294;28;20053;-69
2021/05/02 04:18:39;;;;;;;8.68;6.03;;;;;;;5.46;53.04;101261.94;5009127;28;20034;-70
2021/05/02 04:21:05;;;;;;;14.15;7.45;;;;;;;5.58;52.86;101259.16;5001764;28;20136;-69
2021/05/02 04:23:33;;;;;;;12.13;7.03;;;;;;;5.41;53.00;101268.88;5016574;28;20041;-70
2021/05/02 04:25:59;;;;;;;9.77;7.50;;;;;;;5.54;53.11;101262.66;5002277;28;20076;-70
2021/05/02 04:28:24;;;;;;;11.27;6.97;;;;;;;5.60;52.83;101267.78;5014805;28;20037;-70
2021/05/02 04:30:50;;;;;;;9.82;6.35;;;;;;;5.74;52.58;101269.34;4998132;28;20041;-69
2021/05/02 04:33:15;;;;;;;10.70;6.63;;;;;;;5.43;52.65;101270.56;5004444;28;21017;-69
2021/05/02 04:35:41;;;;;;;12.43;6.13;;;;;;;5.71;52.53;101269.41;5017645;28;20502;-70
2021/05/02 04:38:06;;;;;;;13.10;6.78;;;;;;;5.75;52.38;101268.44;5017928;28;20034;-69
2021/05/02 04:40:32;;;;;;;9.05;6.20;;;;;;;5.86;52.48;101274.38;5005257;28;20399;-69
2021/05/02 04:42:57;;;;;;;11.50;6.25;;;;;;;5.84;51.99;101276.13;5012620;28;20112;-70
2021/05/02 04:45:23;;;;;;;14.02;7.25;;;;;;;5.89;52.03;101279.50;5013452;28;20049;-70
2021/05/02 04:47:48;;;;;;;10.23;7.07;;;;;;;5.92;51.75;101276.00;5011429;28;20151;-69
2021/05/02 04:50:14;;;;;;;11.55;7.03;;;;;;;5.99;51.37;101275.88;4998842;28;20037;-69
2021/05/02 04:52:40;;;;;;;11.45;7.00;;;;;;;6.02;51.85;101286.25;5001069;28;20029;-69
2021/05/02 04:55:06;;;;;;;18.55;6.80;;;;;;;5.99;51.57;101285.41;5015894;28;20112;-69
2021/05/02 04:57:32;;;;;;;11.30;6.95;;;;;;;6.04;51.73;101287.09;4995155;28;20428;-69
2021/05/02 04:59:57;;;;;;;13.55;7.40;;;;;;;6.19;51.73;101292.91;5016495;28;20493;-70
2021/05/02 05:02:23;;;;;;;9.20;6.53;;;;;;;6.23;51.10;101292.00;5014222;28;20026;-69
2021/05/02 05:04:48;;;;;;;11.02;6.90;;;;;;;6.26;50.88;101289.34;4997975;28;20037;-70
2021/05/02 05:07:13;;;;;;;10.98;7.20;;;;;;;6.34;50.81;101292.72;5014735;28;20068;-69
2021/05/02 05:09:39;;;;;;;11.35;6.60;;;;;;;6.34;51.19;101300.50;5016495;28;20064;-70
2021/05/02 05:12:05;;;;;;;9.48;6.63;;;;;;;6.43;50.57;101307.28;5013727;28;20077;-70
2021/05/02 05:14:30;;;;;;;10.32;7.40;;;;;;;6.55;50.33;101301.03;4982409;28;20482;-70
2021/05/02 05:16:56;;;;;;;8.73;6.82;;;;;;;6.63;50.55;101299.19;5021586;28;20030;-69
2021/05/02 05:19:21;;;;;;;9.70;6.38;;;;;;;6.47;50.49;101303.78;5000771;28;20081;-70
2021/05/02 05:21:47;;;;;;;9.80;6.55;;;;;;;6.52;50.36;101303.69;5015863;28;20032;-68
2021/05/02 05:24:12;;;;;;;13.52;7.53;;;;;;;6.51;50.65;101310.63;5014101;28;20112;-69
2021/05/02 05:26:37;;;;;;;10.68;6.63;;;;;;;6.46;50.46;101318.50;4998117;28;20179;-70
2021/05/02 05:29:03;;;;;;;9.90;7.03;;;;;;;6.36;50.64;101316.91;4997607;28;20037;-69
2021/05/02 05:31:28;;;;;;;11.05;6.88;;;;;;;6.48;50.39;101321.94;5013869;28;20099;-69
2021/05/02 05:33:54;;;;;;;10.32;7.00;;;;;;;6.47;50.67;101325.41;5013007;28;20025;-69
2021/05/02 05:36:19;;;;;;;11.77;7.07;;;;;;;6.42;51.24;101326.38;5000520;28;20068;-72
2021/05/02 05:38:45;;;;;;;10.05;6.10;;;;;;;6.45;50.44;101324.56;5014343;28;20045;-70
2021/05/02 05:41:10;;;;;;;12.02;6.72;;;;;;;6.60;50.78;101333.00;4997534;28;20040;-69
2021/05/02 05:43:36;;;;;;;12.85;6.78;;;;;;;6.62;50.98;101329.50;4995586;28;20033;-69
2021/05/02 05:46:01;;;;;;;10.45;6.63;;;;;;;6.69;51.06;101331.09;4984007;28;20057;-69
2021/05/02 05:48:27;;;;;;;13.73;6.68;;;;;;;6.66;51.37;101332.88;4998032;28;20025;-69
2021/05/02 05:50:53;;;;;;;11.60;7.63;;;;;;;6.62;51.19;101333.81;5012716;28;20503;-70
2021/05/02 05:53:19;;;;;;;9.50;5.50;;;;;;;6.55;51.69;101337.41;4996527;28;20040;-68
2021/05/02 05:55:44;;;;;;;8.73;5.80;;;;;;;7.05;51.01;101335.72;5014453;28;20038;-69
2021/05/02 05:58:10;;;;;;;11.13;6.10;;;;;;;7.08;50.77;101330.44;5015458;28;20065;-69
2021/05/02 06:00:35;;;;;;;7.20;5.15;;;;;;;6.71;50.92;101333.69;5013914;28;20037;-69
2021/05/02 06:03:01;;;;;;;8.27;4.07;;;;;;;6.97;51.00;101334.97;5012206;28;20032;-69
2021/05/02 06:05:26;;;;;;;5.43;3.95;;;;;;;7.06;50.62;101338.25;4997930;28;20033;-69
2021/05/02 06:07:52;;;;;;;6.35;3.50;;;;;;;6.85;51.55;101339.50;4998096;28;20030;-69
2021/05/02 06:10:17;;;;;;;5.60;2.63;;;;;;;7.02;51.10;101333.16;5003676;28;20171;-69
2021/05/02 06:12:43;;;;;;;4.30;2.88;;;;;;;6.74;51.38;101333.63;5012141;28;20480;-69
2021/05/02 06:15:13;;;;;;;4.80;3.03;;;;;;;6.60;51.63;101343.41;5006236;28;20061;-69
2021/05/02 06:17:38;;;;;;;4.00;3.05;;;;;;;6.95;51.68;101352.34;5014217;28;20151;-69
2021/05/02 06:20:05;;;;;;;7.35;2.75;;;;;;;7.08;50.89;101349.50;4997652;28;20910;-69
2021/05/02 06:22:31;;;;;;;9.85;2.38;;;;;;;6.91;50.60;101351.56;5013298;28;20049;-69
2021/05/02 06:24:56;;;;;;;7.47;2.17;;;;;;;7.14;50.22;101347.69;5005426;28;20026;-70
2021/05/02 06:27:22;;;;;;;3.65;1.73;;;;;;;7.01;50.17;101358.28;5011945;28;20034;-69
2021/05/02 06:29:48;;;;;;;4.70;1.10;;;;;;;6.44;51.18;101367.00;5003806;28;20425;-69
2021/05/02 06:32:13;;;;;;;2.85;1.10;;;;;;;6.61;51.02;101365.88;5003112;28;20045;-69
2021/05/02 06:34:39;;;;;;;3.17;0.68;;;;;;;6.52;50.67;101361.69;4998903;28;20033;-69
2021/05/02 06:37:04;;;;;;;5.50;0.85;;;;;;;6.52;49.92;101363.44;5013460;28;20041;-69
2021/05/02 06:39:30;;;;;;;1.83;0.28;;;;;;;6.77;49.49;101362.16;5011849;28;20033;-68
2021/05/02 06:41:56;;;;;;;6.25;0.70;;;;;;;6.63;49.64;101367.56;4998843;28;20048;-70
2021/05/02 06:44:22;;;;;;;3.20;0.60;;;;;;;6.79;49.36;101357.78;5013924;28;20033;-69
2021/05/02 06:46:48;;;;;;;3.92;0.70;;;;;;;6.55;49.89;101360.78;5016108;28;20029;-70
2021/05/02 06:49:13;;;;;;;3.35;0.63;;;;;;;6.47;50.35;101361.75;5014650;28;20029;-69
2021/05/02 06:51:39;;;;;;;2.33;0.38;;;;;;;6.37;50.65;101360.16;5003781;28;20041;-70
2021/05/02 06:54:06;;;;;;;2.10;0.90;;;;;;;6.95;49.33;101360.13;5003079;28;20038;-69
2021/05/02 06:56:33;;;;;;;4.85;1.83;;;;;;;6.97;49.80;101360.97;5016041;28;20034;-69
2021/05/02 06:58:58;;;;;;;5.72;1.02;;;;;;;6.52;50.06;101363.44;5016563;28;20049;-69
2021/05/02 07:01:25;;;;;;;3.55;1.08;;;;;;;6.93;49.18;101354.09;5004322;28;20030;-69
2021/05/02 07:03:51;;;;;;;5.65;1.05;;;;;;;7.53;48.08;101361.66;5014089;28;20033;-68
2021/05/02 07:06:17;;;;;;;3.92;2.13;;;;;;;7.22;48.77;101362.25;5019018;28;20033;-71
2021/05/02 07:08:42;;;;;;;3.20;1.08;;;;;;;7.40;48.45;101360.19;5018568;28;20040;-69
2021/05/02 07:11:08;;;;;;;4.95;1.33;;;;;;;7.82;47.61;101362.88;4999041;28;20064;-68
2021/05/02 07:13:34;;;;;;;8.10;2.05;;;;;;;7.77;46.93;101360.34;5006693;28;20018;-68
2021/05/02 07:16:00;;;;;;;6.82;1.50;;;;;;;7.67;47.04;101369.25;5017974;28;20398;-68
2021/05/02 07:18:34;;;;;;;3.45;1.35;;;;;;;7.88;45.88;101373.16;5015595;28;20037;-69
2021/05/02 07:21:00;;;;;;;7.57;2.35;;;;;;;8.14;45.83;101370.84;5016293;28;20057;-69
2021/05/02 07:23:25;;;;;;;7.88;2.25;;;;;;;8.89;43.70;101370.84;5007957;28;20065;-68
2021/05/02 07:25:51;;;;;;;4.25;1.80;;;;;;;10.86;40.35;101366.97;5014785;28;20033;-68
2021/05/02 07:28:16;;;;;;;4.60;1.55;;;;;;;11.49;38.66;101367.44;4987711;28;20038;-68
2021/05/02 07:30:42;;;;;;;5.93;1.52;;;;;;;10.34;39.53;101370.31;5016013;28;20033;-70
2021/05/02 07:33:08;;;;;;;2.25;1.02;;;;;;;9.68;41.17;101372.25;5016908;28;20041;-68
2021/05/02 07:35:33;;;;;;;4.10;1.85;;;;;;;8.56;42.95;101369.91;5016741;28;20033;-68
2021/05/02 07:37:59;;;;;;;5.40;1.90;;;;;;;8.19;44.17;101377.72;5017051;28;20036;-69
2021/05/02 07:40:24;;;;;;;3.65;2.17;;;;;;;8.40;44.63;101376.38;5019403;28;20140;-68
2021/05/02 07:42:50;;;;;;;5.25;1.55;;;;;;;7.92;44.92;101383.47;5014413;28;20468;-68
2021/05/02 07:45:15;;;;;;;3.75;1.77;;;;;;;8.20;45.60;101380.25;5002063;28;20041;-69
2021/05/02 07:47:41;;;;;;;6.55;1.15;;;;;;;7.59;46.56;101382.41;5001870;28;20054;-69
2021/05/02 07:50:08;;;;;;;3.17;1.10;;;;;;;7.30;46.97;101385.50;5018119;28;20037;-69
2021/05/02 07:52:33;;;;;;;3.38;0.90;;;;;;;8.12;45.60;101392.63;5016602;28;20034;-69
2021/05/02 07:54:59;;;;;;;8.18;1.45;;;;;;;8.13;44.51;101395.16;5006163;28;20120;-68
2021/05/02 07:57:25;;;;;;;3.88;1.65;;;;;;;9.01;43.25;101394.91;4997759;28;20045;-69
2021/05/02 07:59:50;;;;;;;5.18;1.30;;;;;;;8.81;42.58;101388.47;5006730;28;20040;-68
2021/05/02 08:02:18;;;;;;;4.93;0.88;;;;;;;8.98;44.04;101401.06;5012921;28;20049;-70
2021/05/02 08:04:44;;;;;;;6.60;1.50;;;;;;;8.74;43.88;101403.38;5000566;28;20037;-69
2021/05/02 08:07:11;;;;;;;2.78;1.15;;;;;;;8.54;44.45;101390.78;5003149;28;20125;-69
2021/05/02 08:09:36;;;;;;;3.88;1.08;;;;;;;8.11;43.88;101390.88;5018753;28;20411;-68
2021/05/02 08:12:03;;;;;;;5.95;1.33;;;;;;;8.50;42.94;101399.56;5024942;28;20041;-68
2021/05/02 08:14:29;;;;;;;2.97;1.30;;;;;;;8.68;44.67;101394.81;5011104;28;20029;-69
2021/05/02 08:16:55;;;;;;;3.55;1.33;;;;;;;9.50;42.05;101394.50;5013854;28;20041;-69
2021/05/02 08:19:21;;;;;;;8.30;1.90;;;;;;;11.70;36.66;101394.59;5012316;28;20033;-68
2021/05/02 08:21:47;;;;;;;4.55;1.00;;;;;;;12.45;35.61;101391.75;5014617;28;20523;-69
2021/05/02 08:24:12;;;;;;;3.47;1.05;;;;;;;11.99;36.09;101397.00;5013005;28;20030;-69
2021/05/02 08:26:39;;;;;;;5.15;1.02;;;;;;;12.01;36.90;101399.56;5015690;28;20029;-69
2021/05/02 08:29:05;;;;;;;8.07;1.10;;;;;;;11.09;37.68;101397.59;5011007;28;20144;-68
2021/05/02 08:31:30;;;;;;;3.45;0.85;;;;;;;12.32;36.38;101403.66;5014507;28;20037;-69
2021/05/02 08:33:56;;;;;;;4.88;0.98;;;;;;;12.43;37.36;101407.53;5013987;28;20144;-69
2021/05/02 08:36:21;;;;;;;4.47;1.30;;;;;;;11.25;38.32;101409.25;5014864;28;20407;-68
2021/05/02 08:38:47;;;;;;;4.20;1.08;;;;;;;11.27;38.88;101402.19;5016122;28;20372;-68
2021/05/02 08:41:13;;;;;;;3.28;0.80;;;;;;;11.49;38.88;101406.69;5011435;28;20037;-68
2021/05/02 08:43:40;;;;;;;3.55;1.10;;;;;;;12.95;35.41;101404.59;5015867;28;20898;-68
2021/05/02 08:46:05;;;;;;;6.03;0.77;;;;;;;13.78;35.15;101401.03;4983873;28;20046;-69
2021/05/02 08:48:31;;;;;;;5.30;1.00;;;;;;;13.11;35.24;101399.56;5015669;28;20040;-68
2021/05/02 08:50:58;;;;;;;6.88;1.23;;;;;;;11.41;38.08;101406.94;5016491;28;20025;-68
2021/05/02 08:53:25;;;;;;;3.72;1.05;;;;;;;10.31;40.76;101414.84;5010298;28;20931;-68
2021/05/02 08:55:55;;;;;;;4.72;1.20;;;;;;;9.57;41.69;101410.84;5003308;28;20042;-71
2021/05/02 08:58:22;;;;;;;2.97;0.57;;;;;;;8.91;42.28;101415.16;4996686;28;20676;-68
2021/05/02 09:00:49;;;;;;;2.20;0.90;;;;;;;9.44;42.49;101417.31;4998235;28;20025;-69
2021/05/02 09:03:14;;;;;;;9.27;1.70;;;;;;;8.57;42.51;101429.78;5012882;28;20030;-71
2021/05/02 09:05:45;;;;;;;6.47;1.40;;;;;;;8.12;43.80;101416.91;4994228;28;20415;-69
2021/05/02 09:08:29;;;;;;;2.92;0.75;;;;;;;9.47;41.74;101420.66;5013338;28;20073;-69
2021/05/02 09:10:55;;;;;;;2.80;0.95;;;;;;;9.42;40.43;101422.56;5020378;28;20073;-68
2021/05/02 09:13:21;;;;;;;6.07;0.63;;;;;;;9.93;39.93;101423.81;5011210;28;20113;-68
2021/05/02 09:15:59;;;;;;;3.15;0.47;;;;;;;11.14;38.70;101420.06;5011422;28;20061;-69
2021/05/02 09:18:35;;;;;;;4.38;0.75;;;;;;;9.59;40.66;101433.41;5012530;28;20026;-69
2021/05/02 09:21:02;;;;;;;3.50;0.85;;;;;;;9.71;40.83;101437.41;5010435;28;20045;-69
2021/05/02 09:23:38;;;;;;;2.35;0.90;;;;;;;8.63;42.78;101436.63;5012061;28;20395;-69
2021/05/02 09:26:06;;;;;;;2.95;0.55;;;;;;;7.84;44.10;101432.19;5010266;28;20042;-69
2021/05/02 09:28:45;;;;;;;5.90;0.50;;;;;;;8.63;42.55;101435.75;4990000;28;20794;-68
2021/05/02 09:31:14;;;;;;;0.60;0.35;;;;;;;8.24;42.54;101440.97;4992757;28;20048;-69
2021/05/02 09:33:40;;;;;;;6.55;0.65;;;;;;;8.52;42.02;101436.88;5011012;28;20070;-69
2021/05/02 09:36:16;;;;;;;4.63;1.23;;;;;;;8.07;42.88;101436.97;4994224;28;20091;-68
2021/05/02 09:38:43;;;;;;;9.57;0.63;;;;;;;8.13;42.91;101441.19;5009630;28;20029;-69
2021/05/02 09:41:12;;;;;;;3.00;0.85;;;;;;;8.20;43.29;101442.75;4991261;28;20041;-70
2021/05/02 09:43:49;;;;;;;4.22;0.63;;;;;;;8.23;44.15;101450.53;5012443;28;20076;-68
2021/05/02 09:46:26;;;;;;;2.45;0.60;;;;;;;8.58;43.01;101448.88;5011804;28;20030;-69
2021/05/02 09:49:00;;;;;;;3.00;0.80;;;;;;;9.07;41.53;101449.53;5004573;28;20425;-70
2021/05/02 09:51:28;;;;;;;3.38;0.50;;;;;;;9.07;42.00;101458.19;5013180;28;20053;-68
2021/05/02 09:54:00;;;;;;;2.17;0.30;;;;;;;8.76;42.47;101450.25;5016124;28;20032;-70
2021/05/02 09:56:42;;;;;;;12.98;0.98;;;;;;;8.17;43.55;101457.59;5013552;28;20040;-69
2021/05/02 09:59:27;;;;;;;6.55;0.60;;;;;;;7.32;45.06;101462.59;5010605;28;20029;-68
2021/05/02 10:02:11;;;;;;;9.38;0.85;;;;;;;6.87;46.92;101459.88;5013052;28;20489;-69
2021/05/02 10:04:42;;;;;;;8.20;0.98;;;;;;;6.61;47.51;101470.63;4996966;28;20408;-69
2021/05/02 10:07:17;;;;;;;3.77;0.57;;;;;;;5.99;49.62;101462.72;5004160;28;20038;-69
2021/05/02 10:09:43;;;;;;;6.65;0.70;;;;;;;6.81;48.10;101472.94;4996450;28;20295;-69
2021/05/02 10:12:10;;;;;;;4.50;0.55;;;;;;;7.01;46.99;101467.44;5011136;28;20090;-70
2021/05/02 10:14:44;;;;;;;2.45;0.50;;;;;;;6.79;48.13;101482.50;5010792;28;20040;-69
2021/05/02 10:17:10;;;;;;;2.45;0.60;;;;;;;6.38;48.82;101475.28;5012781;28;20041;-70
2021/05/02 10:19:36;;;;;;;5.50;0.75;;;;;;;6.94;47.54;101483.16;5010268;28;20037;-70
2021/05/02 10:22:02;;;;;;;8.40;1.05;;;;;;;6.65;48.02;101485.28;4997117;28;20044;-69
2021/05/02 10:24:28;;;;;;;2.97;1.05;;;;;;;6.87;47.64;101477.22;5010959;28;20038;-68
2021/05/02 10:26:54;;;;;;;4.55;0.98;;;;;;;6.62;48.61;101489.66;5003135;28;20033;-69
2021/05/02 10:29:29;;;;;;;6.43;0.88;;;;;;;6.12;49.89;101483.34;5003989;28;20512;-69
2021/05/02 10:32:00;;;;;;;5.05;0.85;;;;;;;6.17;49.11;101487.63;4985872;28;20048;-68
2021/05/02 10:34:30;;;;;;;3.75;0.57;;;;;;;6.14;49.46;101492.84;5014154;28;20114;-69
2021/05/02 10:37:30;;;;;;;4.20;1.00;;;;;;;6.24;49.48;101493.59;5003608;28;20053;-69
2021/05/02 10:40:18;;;;;;;3.47;0.70;;;;;;;6.06;49.63;101498.13;4957932;28;20042;-68
2021/05/02 10:42:48;;;;;;;1.92;0.63;;;;;;;6.16;48.96;101487.63;5009261;28;20099;-68
2021/05/02 10:45:33;;;;;;;3.00;0.60;;;;;;;6.40;49.86;101497.75;5001181;28;20590;-68
2021/05/02 10:48:01;;;;;;;4.85;1.05;;;;;;;6.93;48.50;101505.69;5009419;28;20041;-68
2021/05/02 10:50:42;;;;;;;6.47;0.90;;;;;;;6.69;48.41;101496.53;5010749;28;20037;-68
2021/05/02 10:53:18;;;;;;;10.05;0.95;;;;;;;6.87;48.04;101506.63;4985260;28;20038;-68
2021/05/02 10:56:01;;;;;;;8.15;0.88;;;;;;;6.93;48.66;101504.81;5009712;28;20049;-69
2021/05/02 10:58:35;;;;;;;2.35;1.00;;;;;;;6.91;47.96;101502.28;5011853;28;20045;-69
2021/05/02 11:01:02;;;;;;;5.10;0.82;;;;;;;6.70;48.21;101503.41;5011042;28;20040;-69
2021/05/02 11:03:51;;;;;;;6.35;1.35;;;;;;;6.14;49.40;101498.03;5010557;28;20045;-70
2021/05/02 11:06:39;;;;;;;3.55;0.75;;;;;;;5.82;50.95;101511.34;4996455;28;20091;-70
2021/05/02 11:09:09;;;;;;;5.80;0.73;;;;;;;6.88;48.88;101510.94;4996335;28;20045;-69
2021/05/02 11:11:45;;;;;;;4.95;1.05;;;;;;;6.43;49.33;101513.28;4993472;28;20545;-69
2021/05/02 11:14:15;;;;;;;5.53;0.82;;;;;;;6.92;48.77;101509.19;5013207;28;20038;-68
2021/05/02 11:16:44;;;;;;;13.43;1.33;;;;;;;6.49;49.15;101510.63;5008827;28;20045;-69
2021/05/02 11:19:38;;;;;;;6.68;1.15;;;;;;;6.43;49.23;101512.44;4996322;28;20609;-68
2021/05/02 11:22:10;;;;;;;8.27;1.15;;;;;;;6.38;48.93;101522.88;4986890;28;20088;-69
2021/05/02 11:24:38;;;;;;;3.97;0.93;;;;;;;6.13;49.40;101524.88;5009528;28;20038;-68
2021/05/02 11:29:59;;;;;;;3.55;1.10;;;;;;;6.47;48.96;101517.56;5007423;28;20041;-69
2021/05/02 11:32:31;;;;;;;4.78;0.90;;;;;;;6.00;50.68;101525.88;5011086;28;20041;-69
2021/05/02 11:35:00;;;;;;;5.05;1.27;;;;;;;6.34;50.27;101526.38;5012100;28;20033;-68
2021/05/02 11:38:00;;;;;;;4.47;0.60;;;;;;;6.88;49.33;101534.34;5010197;28;20062;-69
2021/05/02 11:40:29;;;;;;;6.10;0.88;;;;;;;7.01;47.58;101523.78;4996339;28;20100;-70